Share

Darlington, SC

3:30 AM EDT on April 24, 2014 (GMT -0400)
South Darlington (KSCDARLI8) Elev 149 ft | 34.20 °N, 79.91 °W | Change Station

Current weather conditions updated 8 minutes ago

Clear
Clear
54.6 °F
Feels Like 54.6 °F
N
-
Wind Variable Wind from North
Sunrise 6:37 AM
Sunset 7:58 PM
Moon Waning Crescent

Today is forecast to be Cooler than yesterday.

Pressure 30.01 in
Visibility 10.0 miles
Clouds Clear
Dew Point 38 °F
Humidity 53%
Rainfall -999.00 in
Snow Depth Not available.
UV 0 out of 16
Pollen 8.80 out of 12
Air Quality Not available.
Flu Activity Local Activity
METAR KUDG 240715Z AUTO 03005KT 10SM CLR 11/03 A3001 RMK AO1

More Conditions Fewer Conditions

Pressure 30.01 in
Visibility 10.0 miles
Clouds Clear
Dew Point 38 °F
Humidity 53%
Rainfall -999.00 in
Snow Depth Not available.
UV 0 out of 16
Pollen 8.80 out of 12
Air Quality Not available.
Flu Activity Local Activity
METAR KUDG 240715Z AUTO 03005KT 10SM CLR 11/03 A3001 RMK AO1

More Conditions Fewer Conditions

10-Day Weather Forecast

Almanac

Astronomy

Apr. 24, 2014 Rise Set
Actual Time 6:37 AM EDT 7:58 PM EDT
Civil Twilight 6:11 AM EDT 8:24 PM EDT
Nautical Twilight 5:39 AM EDT 8:56 PM EDT
Astronomical Twilight 5:06 AM EDT 9:29 PM EDT
Moon 3:34 AM EDT 3:24 PM EDT
Length of Visible Light 14h 13m
Length of Day
13h 20m
Tomorrow will be 1m 55s longer.
Waning Crescent, 28% of the Moon is Illuminated
Today
Waning Crescent
Apr 29
New
May 6
First Quarter
May 14
Full
May 21
Last Quarter

Today's Extremes

State Highs State Lows

Community

  • Stacked
    Stacked
  • clouds approaching Red Sox Nation
    clouds approaching Red Sox Nation
  • Balance
    Balance
  • Nestled In
    Nestled In
  • Stunning Sunrise
    Stunning Sunrise

WunderPhotos

Upload Photos

1,704,571 photos uploaded!

WunderBlogs® & News

Nearby

Air Quality

  Air Quality AQ Index Pollutant
Thursday Moderate
OZONE

Snow Depth

Station Depth Elevation
No new snow has been reported.

Coastal Water Temperatures

Place Temperature
No Stations Reporting

Earthquake Activity

City Distance Mag. Time & Date
No recent earthquake activity has been reported nearby.
Minimum magnitude displayed is 2.5.

Nearby Weather Stations

Station Location Temp. Windchill Dew Point Humidity Wind Precip. Elev Updated Type
South Darlington, Darlington, SC 54.6 °F - 38 °F 53% North  at  - - / hr 149 ft 3:21 AM EDT Normal
Mechanicsville, Darlington, SC 46.9 °F 47 °F 42 °F 84% NE  at  0.0 mph 0.00 in / hr 144 ft 3:30 AM EDT Rapid Fire
Savannah Grove, Effingham, SC 46.4 °F 46 °F 41 °F 80% SW  at  0.0 mph - / hr 138 ft 3:29 AM EDT Normal
The Abbeys, Florence, SC 44.4 °F 44 °F 44 °F 97% West  at  0.0 mph - / hr 138 ft 3:29 AM EDT Normal
Cottingham Creek, Bennettsville, SC 49.2 °F 49 °F 40 °F 70% NNW  at  0.0 mph 0.00 in / hr 143 ft 3:27 AM EDT Rapid Fire

Show More Stations Show Fewer Stations

What do you think?

We're not finished. Please let us know what you like, what you don't like, and what you are still missing.